Partly cloudy and cirrus
Mostly cloudy and cirrus
Overcast
Overcast
Overcast
Overcast
Overcast with light rain
(°F)
45°
47°
49°
51°
51°
50°
49°
(°F)
42°
42°
45°
47°
47°
47°
46°
SE
SSE
S
S
S
SSE
E
(mph)
1-11
4-11
3-11
3-12
4-12
2-10
2-14
(in)
0
0
0
0
0
0
0.1
(%)
1
1
1
6
16
34
53

Sun elevation

/ 23.1°
sun-icon
UV 1
06:49
15:58
Full moon (185°)
15:53
07:15

METAR for Niš (LYNI)

Time Conditions Temperature/
Dewpoint
Wind Visibility Weather Clouds Pressure Change Raw
MVFR 44.6°F / 44.6°F variable 1kt 8000m - Few Clouds 400ft
Scattered Clouds 5000ft
1015 No Significant change LYNI 080900Z VRB01KT 8000 FEW004 SCT050 07/07 Q1015 NOSIG
MVFR 44.6°F / 44.6°F variable 2kt 8000m - Few Clouds 400ft
Broken Clouds 5000ft
1015 No Significant change LYNI 080830Z VRB02KT 8000 FEW004 BKN050 07/07 Q1015 NOSIG
MVFR 44.6°F / 44.6°F variable 0kt 8000m - Few Clouds 400ft
Scattered Clouds 5000ft
1015 No Significant change LYNI 080800Z 00000KT 8000 FEW004 SCT050 07/07 Q1015 NOSIG
MVFR 42.8°F / 42.8°F variable 1kt 7000m Light Rain 1.00mm precipitation Vertical Visibility of 0ft.
Scattered Clouds 4300ft
1015 No Significant change LYNI 080730Z VRB01KT 7000 -RA FEW005 SCT043 06/06 Q1015 NOSIG
MVFR 42.8°F / 42.8°F variable 0kt 7000m Light Rain 1.00mm precipitation Vertical Visibility of 0ft.
Scattered Clouds 4300ft
1015 No Significant change LYNI 080700Z 00000KT 7000 -RA FEW005 SCT043 06/06 Q1015 NOSIG
MVFR 42.8°F / 42.8°F variable 0kt 7000m Light Rain 1.00mm precipitation Vertical Visibility of 0ft.
Scattered Clouds 4300ft
1015 No Significant change LYNI 080630Z 00000KT 7000 -RA FEW020 SCT043 06/06 Q1015 NOSIG
MVFR 42.8°F / 42.8°F variable 0kt 7000m - Few Clouds 2000ft
Scattered Clouds 4300ft
1015 No Significant change LYNI 080600Z 00000KT 7000 FEW020 SCT043 06/06 Q1015 NOSIG
MVFR 41°F / 41°F variable 1kt 8000m - Few Clouds 2000ft
Scattered Clouds 4300ft
Broken Clouds 6700ft
1015 No Significant change LYNI 080530Z VRB01KT 8000 FEW020 SCT043 BKN067 05/05 Q1015 NOSIG
VFR 42.8°F / 42.8°F 140º 1kt >10km - Few Clouds 1700ft
Broken Clouds 6700ft
1014 No Significant change LYNI 080500Z 14001KT 9999 FEW017 BKN067 06/06 Q1014 NOSIG
VFR 42.8°F / 42.8°F 250º 1kt >10km - Scattered Clouds 4300ft
Broken Clouds 6700ft
1014 No Significant change LYNI 080430Z 25001KT 9999 SCT043 BKN067 06/06 Q1014 NOSIG
VFR 42.8°F / 42.8°F variable 0kt >10km Light Rain 1.00mm precipitation Vertical Visibility of 0ft. 1014 No Significant change LYNI 080400Z 00000KT 9999 -RA BKN050 06/06 Q1014 NOSIG
VFR 42.8°F / 42.8°F 310º 2kt >10km Light Rain 1.00mm precipitation Vertical Visibility of 0ft. 1014 No Significant change LYNI 080330Z 31002KT 9999 -RA BKN047 06/06 Q1014 NOSIG
VFR 42.8°F / 42.8°F 320º 3kt >10km Light Rain 1.00mm precipitation Vertical Visibility of 0ft.
Broken Clouds 4700ft
1014 No Significant change LYNI 080300Z 32003KT 9999 -RA SCT033 BKN047 06/06 Q1014 NOSIG
VFR 42.8°F / 42.8°F 300º variable 260º to 350º 3kt >10km Light Rain 1.00mm precipitation Vertical Visibility of 0ft.
Broken Clouds 3700ft
1014 No Significant change LYNI 080230Z 30003KT 260V350 9999 -RA FEW015 BKN037 06/06 Q1014 NOSIG
MVFR 42.8°F / 42.8°F 310º 5kt >10km Light Rain 1.00mm precipitation Vertical Visibility of 0ft.
Broken Clouds 3000ft
1015 No Significant change LYNI 080200Z 31005KT 9999 -RA SCT012 BKN030 06/06 Q1015 NOSIG
MVFR 42.8°F / 42.8°F 320º variable 290º to 350º 5kt >10km Light Rain 1.00mm precipitation Vertical Visibility of 0ft.
Broken Clouds 2700ft
1015 No Significant change LYNI 080130Z 32005KT 290V350 9999 -RA SCT010 BKN027 06/06 Q1015 NOSIG
MVFR 44.6°F / 44.6°F 310º variable 280º to 030º 3kt >10km Light Rain 1.00mm precipitation Vertical Visibility of 0ft.
Broken Clouds 2700ft
1015 No Significant change LYNI 080100Z 31003KT 280V030 9999 -RA FEW017 BKN027 07/07 Q1015 NOSIG
VFR 44.6°F / 44.6°F 350º variable 300º to 020º 4kt >10km - Few Clouds 1700ft
Scattered Clouds 3000ft
Broken Clouds 4300ft
1015 No Significant change LYNI 080030Z 35004KT 300V020 9999 FEW017 SCT030 BKN043 07/07 Q1015 NOSIG
VFR 44.6°F / 44.6°F 340º variable 310º to 020º 5kt >10km Light Rain 1.00mm precipitation Vertical Visibility of 0ft.
Scattered Clouds 3000ft
Broken Clouds 4300ft
1015 No Significant change LYNI 080000Z 34005KT 310V020 9999 -RA FEW017 SCT030 BKN043 07/07 Q1015 NOSIG
VFR 44.6°F / 42.8°F 330º 8kt >10km Light Rain 1.00mm precipitation Vertical Visibility of 0ft.
Scattered Clouds 3000ft
Broken Clouds 4700ft
1015 No Significant change LYNI 072330Z 33008KT 9999 -RA FEW017 SCT030 BKN047 07/06 Q1015 NOSIG
VFR 44.6°F / 42.8°F 330º 10kt >10km - Few Clouds 3300ft
Broken Clouds 4700ft
1014 No Significant change LYNI 072300Z 33010KT 9999 FEW033 BKN047 07/06 Q1014 NOSIG
VFR 44.6°F / 44.6°F 330º 9kt >10km - Broken Clouds 4700ft 1014 No Significant change LYNI 072230Z 33009KT 9999 BKN047 07/07 Q1014 NOSIG
VFR 42.8°F / 42.8°F 320º variable 290º to 020º 4kt >10km - Broken Clouds 4700ft 1014 No Significant change LYNI 072200Z 32004KT 290V020 9999 BKN047 06/06 Q1014 NOSIG
VFR 42.8°F / 42.8°F 340º variable 290º to 020º 4kt >10km - Few Clouds 1000ft
Scattered Clouds 4700ft
1014 No Significant change LYNI 072130Z 34004KT 290V020 9999 FEW010 SCT047 06/06 Q1014 NOSIG

MVFR

44.6°F / 44.6°F

[More]
Wind variable 1kt
Visibility 8000m
Weather -
Clouds Few Clouds 400ft
Scattered Clouds 5000ft
Pressure 1015
Change No Significant change
Raw LYNI 080900Z VRB01KT 8000 FEW004 SCT050 07/07 Q1015 NOSIG

MVFR

44.6°F / 44.6°F

[More]
Wind variable 2kt
Visibility 8000m
Weather -
Clouds Few Clouds 400ft
Broken Clouds 5000ft
Pressure 1015
Change No Significant change
Raw LYNI 080830Z VRB02KT 8000 FEW004 BKN050 07/07 Q1015 NOSIG

MVFR

44.6°F / 44.6°F

[More]
Wind variable 0kt
Visibility 8000m
Weather -
Clouds Few Clouds 400ft
Scattered Clouds 5000ft
Pressure 1015
Change No Significant change
Raw LYNI 080800Z 00000KT 8000 FEW004 SCT050 07/07 Q1015 NOSIG

MVFR

42.8°F / 42.8°F

[More]
Wind variable 1kt
Visibility 7000m
Weather Light Rain 1.00mm precipitation
Clouds Vertical Visibility of 0ft.
Scattered Clouds 4300ft
Pressure 1015
Change No Significant change
Raw LYNI 080730Z VRB01KT 7000 -RA FEW005 SCT043 06/06 Q1015 NOSIG

MVFR

42.8°F / 42.8°F

[More]
Wind variable 0kt
Visibility 7000m
Weather Light Rain 1.00mm precipitation
Clouds Vertical Visibility of 0ft.
Scattered Clouds 4300ft
Pressure 1015
Change No Significant change
Raw LYNI 080700Z 00000KT 7000 -RA FEW005 SCT043 06/06 Q1015 NOSIG

MVFR

42.8°F / 42.8°F

[More]
Wind variable 0kt
Visibility 7000m
Weather Light Rain 1.00mm precipitation
Clouds Vertical Visibility of 0ft.
Scattered Clouds 4300ft
Pressure 1015
Change No Significant change
Raw LYNI 080630Z 00000KT 7000 -RA FEW020 SCT043 06/06 Q1015 NOSIG

MVFR

42.8°F / 42.8°F

[More]
Wind variable 0kt
Visibility 7000m
Weather -
Clouds Few Clouds 2000ft
Scattered Clouds 4300ft
Pressure 1015
Change No Significant change
Raw LYNI 080600Z 00000KT 7000 FEW020 SCT043 06/06 Q1015 NOSIG

MVFR

41°F / 41°F

[More]
Wind variable 1kt
Visibility 8000m
Weather -
Clouds Few Clouds 2000ft
Scattered Clouds 4300ft
Broken Clouds 6700ft
Pressure 1015
Change No Significant change
Raw LYNI 080530Z VRB01KT 8000 FEW020 SCT043 BKN067 05/05 Q1015 NOSIG

VFR

42.8°F / 42.8°F

[More]
Wind 140º 1kt
Visibility >10km
Weather -
Clouds Few Clouds 1700ft
Broken Clouds 6700ft
Pressure 1014
Change No Significant change
Raw LYNI 080500Z 14001KT 9999 FEW017 BKN067 06/06 Q1014 NOSIG

VFR

42.8°F / 42.8°F

[More]
Wind 250º 1kt
Visibility >10km
Weather -
Clouds Scattered Clouds 4300ft
Broken Clouds 6700ft
Pressure 1014
Change No Significant change
Raw LYNI 080430Z 25001KT 9999 SCT043 BKN067 06/06 Q1014 NOSIG

VFR

42.8°F / 42.8°F

[More]
Wind variable 0kt
Visibility >10km
Weather Light Rain 1.00mm precipitation
Clouds Vertical Visibility of 0ft.
Pressure 1014
Change No Significant change
Raw LYNI 080400Z 00000KT 9999 -RA BKN050 06/06 Q1014 NOSIG

VFR

42.8°F / 42.8°F

[More]
Wind 310º 2kt
Visibility >10km
Weather Light Rain 1.00mm precipitation
Clouds Vertical Visibility of 0ft.
Pressure 1014
Change No Significant change
Raw LYNI 080330Z 31002KT 9999 -RA BKN047 06/06 Q1014 NOSIG

VFR

42.8°F / 42.8°F

[More]
Wind 320º 3kt
Visibility >10km
Weather Light Rain 1.00mm precipitation
Clouds Vertical Visibility of 0ft.
Broken Clouds 4700ft
Pressure 1014
Change No Significant change
Raw LYNI 080300Z 32003KT 9999 -RA SCT033 BKN047 06/06 Q1014 NOSIG

VFR

42.8°F / 42.8°F

[More]
Wind 300º variable 260º to 350º 3kt
Visibility >10km
Weather Light Rain 1.00mm precipitation
Clouds Vertical Visibility of 0ft.
Broken Clouds 3700ft
Pressure 1014
Change No Significant change
Raw LYNI 080230Z 30003KT 260V350 9999 -RA FEW015 BKN037 06/06 Q1014 NOSIG

MVFR

42.8°F / 42.8°F

[More]
Wind 310º 5kt
Visibility >10km
Weather Light Rain 1.00mm precipitation
Clouds Vertical Visibility of 0ft.
Broken Clouds 3000ft
Pressure 1015
Change No Significant change
Raw LYNI 080200Z 31005KT 9999 -RA SCT012 BKN030 06/06 Q1015 NOSIG

MVFR

42.8°F / 42.8°F

[More]
Wind 320º variable 290º to 350º 5kt
Visibility >10km
Weather Light Rain 1.00mm precipitation
Clouds Vertical Visibility of 0ft.
Broken Clouds 2700ft
Pressure 1015
Change No Significant change
Raw LYNI 080130Z 32005KT 290V350 9999 -RA SCT010 BKN027 06/06 Q1015 NOSIG

MVFR

44.6°F / 44.6°F

[More]
Wind 310º variable 280º to 030º 3kt
Visibility >10km
Weather Light Rain 1.00mm precipitation
Clouds Vertical Visibility of 0ft.
Broken Clouds 2700ft
Pressure 1015
Change No Significant change
Raw LYNI 080100Z 31003KT 280V030 9999 -RA FEW017 BKN027 07/07 Q1015 NOSIG

VFR

44.6°F / 44.6°F

[More]
Wind 350º variable 300º to 020º 4kt
Visibility >10km
Weather -
Clouds Few Clouds 1700ft
Scattered Clouds 3000ft
Broken Clouds 4300ft
Pressure 1015
Change No Significant change
Raw LYNI 080030Z 35004KT 300V020 9999 FEW017 SCT030 BKN043 07/07 Q1015 NOSIG

VFR

44.6°F / 44.6°F

[More]
Wind 340º variable 310º to 020º 5kt
Visibility >10km
Weather Light Rain 1.00mm precipitation
Clouds Vertical Visibility of 0ft.
Scattered Clouds 3000ft
Broken Clouds 4300ft
Pressure 1015
Change No Significant change
Raw LYNI 080000Z 34005KT 310V020 9999 -RA FEW017 SCT030 BKN043 07/07 Q1015 NOSIG

VFR

44.6°F / 42.8°F

[More]
Wind 330º 8kt
Visibility >10km
Weather Light Rain 1.00mm precipitation
Clouds Vertical Visibility of 0ft.
Scattered Clouds 3000ft
Broken Clouds 4700ft
Pressure 1015
Change No Significant change
Raw LYNI 072330Z 33008KT 9999 -RA FEW017 SCT030 BKN047 07/06 Q1015 NOSIG

VFR

44.6°F / 42.8°F

[More]
Wind 330º 10kt
Visibility >10km
Weather -
Clouds Few Clouds 3300ft
Broken Clouds 4700ft
Pressure 1014
Change No Significant change
Raw LYNI 072300Z 33010KT 9999 FEW033 BKN047 07/06 Q1014 NOSIG

VFR

44.6°F / 44.6°F

[More]
Wind 330º 9kt
Visibility >10km
Weather -
Clouds Broken Clouds 4700ft
Pressure 1014
Change No Significant change
Raw LYNI 072230Z 33009KT 9999 BKN047 07/07 Q1014 NOSIG

VFR

42.8°F / 42.8°F

[More]
Wind 320º variable 290º to 020º 4kt
Visibility >10km
Weather -
Clouds Broken Clouds 4700ft
Pressure 1014
Change No Significant change
Raw LYNI 072200Z 32004KT 290V020 9999 BKN047 06/06 Q1014 NOSIG

VFR

42.8°F / 42.8°F

[More]
Wind 340º variable 290º to 020º 4kt
Visibility >10km
Weather -
Clouds Few Clouds 1000ft
Scattered Clouds 4700ft
Pressure 1014
Change No Significant change
Raw LYNI 072130Z 34004KT 290V020 9999 FEW010 SCT047 06/06 Q1014 NOSIG

TAF for Niš (LYNI)

From till


Maximum Temperature 13ºC on . Minimum Temperature 5ºC on .
From till Wind 140º 5kt. Visibility 10km or more. Broken Clouds 5000ft.
Temporarly from till Wind variable 15kt. Visibility 5000m. Showers Rain . Scattered Clouds 1500ft. Scattered Clouds 3300ft. Broken Clouds 4500ft.
Becoming from till Wind 140º 5kt. Visibility 3000m. Mist . Broken Clouds 5000ft.

Raw: TAF LYNI 080500Z 0806/0906 14005KT 9999 BKN050 TX13/0812Z TN05/0806Z TEMPO 0814/0818 VRB15KT 5000 SHRA SCT015 SCT033TCU BKN045 BECMG 0821/0823 3000 BR

Radar and precipitation nowcast for Niš

Drizzle
Light
Moderate
Heavy
Very Heavy
Hail

The location marker is placed on Niš. This animation shows the precipitation radar for the last 1 hour. Drizzle or light snow fall might be invisible for the radar. Precipitation intensity is colour coded, ranging from light blue to orange.
Copyright 2022 Meteo Romania / meteoblue.

Current satellite and rain images for Niš, Serbia

The location marker is placed on Niš. [More]

The real-time satellite image combines visible light during daytime with infrared radiation during nighttime. At night, the image is not dark as infrared radiation can detect temperature differences. Unfortunately, low clouds and fog are difficult to distinguish from ground temperatures and thus can be almost invisible during the night. Meteosat satellite images for Europe are updated in real-time every 5 minutes. GOES-16/GOES-17 (North & South America) and Himawari (Asia) images update every 10 minutes.

Precipitation is estimated from radar and satellites. Precipitation estimates from satellites are less accurate at night than during daytime. Orange crosses mark places where lightning was detected (over Europe).

Copyright 2022 EUMETSAT / meteoblue. Lightning data provided by nowcast.

Back to top